createdAt,value
2019-04-16T00:02:00.338Z,3.85
2019-04-16T00:04:31.666Z,3.86
2019-04-16T00:07:02.977Z,3.84
2019-04-16T00:09:46.387Z,3.89
2019-04-16T00:12:29.732Z,3.89
2019-04-16T00:15:00.864Z,3.92
2019-04-16T00:17:30.543Z,3.86
2019-04-16T00:20:00.379Z,3.99
2019-04-16T00:22:41.204Z,3.96
2019-04-16T00:25:11.112Z,3.86
2019-04-16T00:27:40.806Z,3.93
2019-04-16T00:30:10.669Z,3.82
2019-04-16T00:32:42.559Z,3.86
2019-04-16T00:35:15.493Z,3.96
2019-04-16T00:37:43.438Z,3.90
2019-04-16T00:40:13.401Z,3.89
2019-04-16T00:42:43.159Z,3.86
2019-04-16T00:45:13.173Z,3.99
2019-04-16T00:47:42.957Z,3.95
2019-04-16T00:50:13.040Z,3.98
2019-04-16T00:52:45.958Z,4.00
2019-04-16T00:55:15.768Z,3.93
2019-04-16T00:57:48.428Z,3.93
2019-04-16T01:00:17.311Z,3.95
2019-04-16T01:02:47.181Z,3.95
2019-04-16T01:05:16.904Z,3.84
2019-04-16T01:07:46.719Z,3.92
2019-04-16T01:10:16.518Z,3.81
2019-04-16T01:12:46.276Z,3.77
2019-04-16T01:15:16.126Z,3.90
2019-04-16T01:17:45.831Z,3.79
2019-04-16T01:20:15.747Z,3.87
2019-04-16T01:22:46.827Z,3.82
2019-04-16T01:25:16.944Z,3.81
2019-04-16T01:27:48.318Z,3.86
2019-04-16T01:30:19.754Z,3.74
2019-04-16T01:33:06.244Z,3.70
2019-04-16T01:35:40.686Z,3.70
2019-04-16T01:38:28.584Z,3.74
2019-04-16T01:41:06.233Z,3.78
2019-04-16T01:43:36.070Z,3.82
2019-04-16T01:46:06.171Z,3.73
2019-04-16T01:48:38.603Z,3.75
2019-04-16T01:51:07.467Z,3.74
2019-04-16T01:53:37.299Z,3.63
2019-04-16T01:56:07.057Z,3.69
2019-04-16T01:58:36.785Z,3.67
2019-04-16T02:01:08.082Z,3.66
2019-04-16T02:03:38.183Z,3.61
2019-04-16T02:06:08.062Z,3.70
2019-04-16T02:08:37.792Z,3.70
2019-04-16T02:11:10.666Z,3.75
2019-04-16T02:13:39.467Z,3.65
2019-04-16T02:16:09.302Z,3.65
2019-04-16T02:18:39.110Z,3.77
2019-04-16T02:21:10.701Z,3.80
2019-04-16T02:23:40.469Z,3.77
2019-04-16T02:26:10.240Z,3.77
2019-04-16T02:28:40.046Z,3.75
2019-04-16T02:31:15.713Z,3.85
2019-04-16T02:33:41.525Z,3.80
2019-04-16T02:36:11.259Z,3.92
2019-04-16T02:38:46.363Z,3.84
2019-04-16T02:41:12.559Z,3.84
2019-04-16T02:43:42.499Z,3.82
2019-04-16T02:46:12.429Z,3.75
2019-04-16T02:48:50.258Z,3.75
2019-04-16T02:51:18.564Z,3.74
2019-04-16T02:54:07.417Z,3.71
2019-04-16T02:56:38.930Z,3.84
2019-04-16T02:59:13.820Z,3.73
2019-04-16T03:01:57.428Z,3.70
2019-04-16T03:04:28.919Z,3.79
2019-04-16T03:07:02.754Z,3.88
2019-04-16T03:09:30.377Z,3.82
2019-04-16T03:12:00.193Z,3.79
2019-04-16T03:14:30.801Z,3.65
2019-04-16T03:17:02.393Z,3.76
2019-04-16T03:19:33.839Z,3.74
2019-04-16T03:22:03.835Z,3.72
2019-04-16T03:24:33.601Z,3.73
2019-04-16T03:27:05.215Z,3.57
2019-04-16T03:29:35.353Z,3.64
2019-04-16T03:32:05.252Z,3.64
2019-04-16T03:34:35.121Z,3.69
2019-04-16T03:37:05.097Z,3.76
2019-04-16T03:39:34.984Z,3.72
2019-04-16T03:42:04.910Z,3.77
2019-04-16T03:44:37.303Z,3.61
2019-04-16T03:47:06.221Z,3.65
2019-04-16T03:49:36.036Z,3.55
2019-04-16T03:52:08.763Z,3.53
2019-04-16T03:54:38.312Z,3.60
2019-04-16T03:57:08.146Z,3.53
2019-04-16T03:59:40.000Z,3.50
2019-04-16T04:02:09.566Z,3.49
2019-04-16T04:04:39.328Z,3.49
2019-04-16T04:07:12.579Z,3.35
2019-04-16T04:09:40.602Z,3.23
2019-04-16T04:12:13.029Z,3.29
2019-04-16T04:14:42.040Z,3.45
2019-04-16T04:17:12.063Z,3.46
2019-04-16T04:19:43.497Z,3.46
2019-04-16T04:22:13.354Z,3.46
2019-04-16T04:24:43.286Z,3.46
2019-04-16T04:27:16.772Z,3.55
2019-04-16T04:29:46.284Z,3.52
2019-04-16T04:32:16.085Z,3.44
2019-04-16T04:34:48.605Z,3.51
2019-04-16T04:37:17.762Z,3.54
2019-04-16T04:39:47.619Z,3.47
2019-04-16T04:42:19.373Z,3.48
2019-04-16T04:44:48.874Z,3.63
2019-04-16T04:47:20.149Z,3.67
2019-04-16T04:49:50.125Z,3.71
2019-04-16T04:52:19.916Z,3.85
2019-04-16T04:54:51.388Z,3.86
2019-04-16T04:57:21.216Z,3.91
2019-04-16T04:59:50.997Z,3.86
2019-04-16T05:02:20.828Z,3.95
2019-04-16T05:04:52.575Z,3.99
2019-04-16T05:07:25.753Z,4.10
2019-04-16T05:09:54.695Z,4.17
2019-04-16T05:12:24.556Z,4.16
2019-04-16T05:14:57.800Z,4.30
2019-04-16T05:17:27.574Z,4.24
2019-04-16T05:19:57.339Z,4.39
2019-04-16T05:22:27.184Z,4.54
2019-04-16T05:25:01.424Z,4.56
2019-04-16T05:27:29.693Z,4.55
2019-04-16T05:29:59.818Z,4.71
2019-04-16T05:32:34.047Z,4.79
2019-04-16T05:35:01.120Z,4.73
2019-04-16T05:37:30.998Z,4.76
2019-04-16T05:40:00.798Z,4.75
2019-04-16T05:42:30.731Z,4.81
2019-04-16T05:45:02.488Z,4.94
2019-04-16T05:47:31.956Z,4.97
2019-04-16T05:50:01.733Z,5.03
2019-04-16T05:52:35.310Z,5.04
2019-04-16T05:55:07.506Z,5.22
2019-04-16T05:57:38.884Z,5.34
2019-04-16T06:00:12.244Z,5.24
2019-04-16T06:02:43.280Z,5.28
2019-04-16T06:05:13.521Z,5.29
2019-04-16T06:07:43.354Z,5.54
2019-04-16T06:10:16.604Z,5.44
2019-04-16T06:13:03.056Z,5.67
2019-04-16T06:15:53.936Z,6.83
2019-04-16T06:18:31.194Z,8.36
2019-04-16T06:21:18.829Z,9.51
2019-04-16T06:24:03.126Z,9.33
2019-04-16T06:26:48.574Z,9.15
2019-04-16T06:29:35.998Z,9.35
2019-04-16T06:32:08.439Z,8.41
2019-04-16T06:34:56.692Z,8.50
2019-04-16T06:37:40.171Z,8.54
2019-04-16T06:40:31.671Z,10.91
2019-04-16T06:43:06.567Z,10.34
2019-04-16T06:45:38.016Z,9.68
2019-04-16T06:48:12.813Z,8.93
2019-04-16T06:50:42.352Z,9.19
2019-04-16T06:53:23.511Z,9.47
2019-04-16T06:56:11.947Z,9.11
2019-04-16T06:58:51.365Z,8.83
2019-04-16T07:01:28.047Z,8.12
2019-04-16T07:03:59.940Z,7.86
2019-04-16T07:06:46.838Z,7.98
2019-04-16T07:09:40.734Z,7.45
2019-04-16T07:12:03.250Z,7.49
2019-04-16T07:14:35.976Z,7.86
2019-04-16T07:17:04.364Z,7.93
2019-04-16T07:19:34.024Z,7.67
2019-04-16T07:22:03.927Z,7.40
2019-04-16T07:24:36.797Z,7.40
2019-04-16T07:27:05.280Z,7.61
2019-04-16T07:29:36.735Z,7.56
2019-04-16T07:32:23.391Z,7.44
2019-04-16T07:34:54.714Z,7.61
2019-04-16T07:37:43.782Z,7.60
2019-04-16T07:40:31.572Z,7.62
2019-04-16T07:43:15.375Z,7.72
2019-04-16T07:45:44.878Z,7.96
2019-04-16T07:48:22.687Z,8.17
2019-04-16T07:51:01.562Z,8.13
2019-04-16T07:53:38.435Z,7.94
2019-04-16T07:56:18.929Z,8.00
2019-04-16T07:58:48.699Z,7.96
2019-04-16T08:01:18.450Z,7.77
2019-04-16T08:03:48.209Z,7.97
2019-04-16T08:06:18.036Z,8.28
2019-04-16T08:08:47.774Z,8.35
2019-04-16T08:11:17.477Z,8.13
2019-04-16T08:13:47.221Z,8.32
2019-04-16T08:16:16.916Z,8.18
2019-04-16T08:18:52.443Z,8.19
2019-04-16T08:21:22.972Z,8.43
2019-04-16T08:23:54.328Z,8.77
2019-04-16T08:26:24.034Z,9.03
2019-04-16T08:28:53.712Z,8.95
2019-04-16T08:31:25.248Z,8.83
2019-04-16T08:33:54.935Z,8.86
2019-04-16T08:36:24.711Z,9.09
2019-04-16T08:38:54.441Z,9.47
2019-04-16T08:41:24.207Z,9.27
2019-04-16T08:43:53.924Z,9.14
2019-04-16T08:46:23.629Z,9.47
2019-04-16T08:48:54.383Z,9.72
2019-04-16T08:51:30.761Z,9.11
2019-04-16T08:54:02.669Z,9.00
2019-04-16T08:56:32.350Z,9.00
2019-04-16T08:59:02.094Z,9.28
2019-04-16T09:01:33.497Z,9.53
2019-04-16T09:04:03.358Z,9.45
2019-04-16T09:06:33.094Z,9.28
2019-04-16T09:09:13.521Z,9.00
2019-04-16T09:11:42.510Z,9.24
2019-04-16T09:14:12.269Z,8.93
2019-04-16T09:16:46.149Z,9.00
2019-04-16T09:19:17.462Z,8.91
2019-04-16T09:21:47.145Z,9.49
2019-04-16T09:24:30.397Z,9.48
2019-04-16T09:27:14.236Z,9.62
2019-04-16T09:30:01.729Z,9.51
2019-04-16T09:32:38.502Z,9.77
2019-04-16T09:35:25.644Z,10.01
2019-04-16T09:38:02.677Z,9.86
2019-04-16T09:40:50.011Z,10.01
2019-04-16T09:43:24.165Z,9.88
2019-04-16T09:45:53.815Z,9.51
2019-04-16T09:48:23.504Z,9.88
2019-04-16T09:50:53.198Z,10.13
2019-04-16T09:53:33.480Z,10.39
2019-04-16T09:55:54.314Z,10.17
2019-04-16T09:58:25.673Z,10.09
2019-04-16T10:01:08.862Z,10.26
2019-04-16T10:03:40.209Z,10.38
2019-04-16T10:06:09.942Z,10.17
2019-04-16T10:08:44.545Z,9.96
2019-04-16T10:11:10.994Z,9.87
2019-04-16T10:13:40.719Z,9.77
2019-04-16T10:16:13.573Z,9.96
2019-04-16T10:18:42.204Z,10.09
2019-04-16T10:21:11.943Z,10.42
2019-04-16T10:23:45.961Z,10.55
2019-04-16T10:26:16.243Z,10.56
2019-04-16T10:28:47.633Z,10.24
2019-04-16T10:31:18.967Z,10.21
2019-04-16T10:33:48.638Z,10.22
2019-04-16T10:36:18.329Z,10.27
2019-04-16T10:39:04.919Z,10.34
2019-04-16T10:41:36.334Z,10.42
2019-04-16T10:44:10.721Z,10.51
2019-04-16T10:46:42.035Z,10.65
2019-04-16T10:49:29.963Z,10.60
2019-04-16T10:52:03.985Z,10.73
2019-04-16T10:54:41.449Z,10.96
2019-04-16T10:57:29.184Z,10.92
2019-04-16T11:00:06.307Z,11.01
2019-04-16T11:02:43.368Z,11.17
2019-04-16T11:05:26.877Z,10.93
2019-04-16T11:07:58.191Z,11.11
2019-04-16T11:10:27.987Z,11.02
2019-04-16T11:12:57.685Z,10.95
2019-04-16T11:15:27.907Z,11.19
2019-04-16T11:17:57.570Z,11.46
2019-04-16T11:20:27.346Z,11.11
2019-04-16T11:22:57.196Z,10.95
2019-04-16T11:25:26.841Z,11.11
2019-04-16T11:27:56.541Z,11.54
2019-04-16T11:30:30.663Z,11.59
2019-04-16T11:33:00.459Z,11.26
2019-04-16T11:35:33.363Z,11.19
2019-04-16T11:38:03.201Z,11.34
2019-04-16T11:40:32.986Z,11.35
2019-04-16T11:43:03.170Z,11.51
2019-04-16T11:45:32.983Z,11.56
2019-04-16T11:48:04.944Z,11.51
2019-04-16T11:50:36.160Z,11.14
2019-04-16T11:53:07.863Z,11.43
2019-04-16T11:55:37.830Z,11.35
2019-04-16T11:58:09.341Z,11.67
2019-04-16T12:00:43.536Z,11.20
2019-04-16T12:03:20.666Z,11.00
2019-04-16T12:05:51.990Z,11.17
2019-04-16T12:08:23.365Z,11.13
2019-04-16T12:11:03.938Z,11.19
2019-04-16T12:13:38.328Z,11.64
2019-04-16T12:16:26.131Z,11.60
2019-04-16T12:19:00.308Z,11.65
2019-04-16T12:21:48.085Z,11.61
2019-04-16T12:24:19.386Z,11.69
2019-04-16T12:26:56.672Z,11.46
2019-04-16T12:29:34.032Z,11.45
2019-04-16T12:32:05.729Z,11.23
2019-04-16T12:34:43.163Z,11.19
2019-04-16T12:37:20.343Z,11.25
2019-04-16T12:39:57.567Z,11.36
2019-04-16T12:42:29.043Z,11.32
2019-04-16T12:45:00.453Z,11.50
2019-04-16T12:47:31.967Z,11.67
2019-04-16T12:50:12.420Z,11.90
2019-04-16T12:52:47.000Z,12.13
2019-04-16T12:55:18.600Z,12.79
2019-04-16T12:58:18.777Z,12.89
2019-04-16T13:00:48.076Z,12.80
2019-04-16T13:03:36.528Z,12.31
2019-04-16T13:06:20.237Z,12.65
2019-04-16T13:09:30.234Z,12.85
2019-04-16T13:12:10.099Z,12.66
2019-04-16T13:15:01.103Z,12.36
2019-04-16T13:17:47.884Z,12.14
2019-04-16T13:20:34.617Z,12.08
2019-04-16T13:23:22.431Z,11.79
2019-04-16T13:25:53.765Z,11.82
2019-04-16T13:28:25.059Z,11.76
2019-04-16T13:30:54.832Z,11.95
2019-04-16T13:33:24.575Z,11.73
2019-04-16T13:35:54.280Z,11.44
2019-04-16T13:38:37.578Z,11.83
2019-04-16T13:41:06.898Z,11.85
2019-04-16T13:43:38.239Z,11.76
2019-04-16T13:46:08.200Z,11.84
2019-04-16T13:48:42.405Z,12.07
2019-04-16T13:51:18.502Z,11.96
2019-04-16T13:53:46.217Z,11.87
2019-04-16T13:56:18.667Z,11.95
2019-04-16T13:59:02.138Z,11.72
2019-04-16T14:01:48.855Z,11.50
2019-04-16T14:04:18.539Z,11.43
2019-04-16T14:06:48.214Z,11.60
2019-04-16T14:09:18.021Z,11.72
2019-04-16T14:11:50.973Z,11.90
2019-04-16T14:14:28.837Z,11.67
2019-04-16T14:17:08.370Z,11.90
2019-04-16T14:19:30.041Z,11.83
2019-04-16T14:21:59.812Z,11.83
2019-04-16T14:24:29.586Z,11.66
2019-04-16T14:26:59.281Z,11.64
2019-04-16T14:29:29.030Z,11.48
2019-04-16T14:31:58.888Z,11.46
2019-04-16T14:34:38.055Z,11.47
2019-04-16T14:37:07.893Z,11.57
2019-04-16T14:39:39.290Z,11.67
2019-04-16T14:42:09.129Z,11.66
2019-04-16T14:44:43.583Z,11.59
2019-04-16T14:47:13.320Z,11.51
2019-04-16T14:49:43.051Z,11.48
2019-04-16T14:52:12.904Z,11.53
2019-04-16T14:54:47.183Z,11.53
2019-04-16T14:57:19.066Z,11.79
2019-04-16T15:00:05.690Z,11.57
2019-04-16T15:02:42.819Z,11.41
2019-04-16T15:05:15.855Z,11.48
2019-04-16T15:07:56.203Z,11.60
2019-04-16T15:10:36.475Z,11.49
2019-04-16T15:13:11.144Z,11.45
2019-04-16T15:15:48.472Z,11.59
2019-04-16T15:18:22.627Z,11.65
2019-04-16T15:21:12.406Z,11.40
2019-04-16T15:24:01.888Z,11.64
2019-04-16T15:26:35.597Z,11.37
2019-04-16T15:29:07.080Z,11.44
2019-04-16T15:31:41.303Z,11.44
2019-04-16T15:34:18.647Z,11.29
2019-04-16T15:36:53.365Z,11.44
2019-04-16T15:39:26.107Z,11.43
2019-04-16T15:42:17.371Z,11.38
2019-04-16T15:44:47.137Z,11.39
2019-04-16T15:47:21.590Z,11.44
2019-04-16T15:49:55.830Z,11.50
2019-04-16T15:52:46.225Z,11.46
2019-04-16T15:55:24.562Z,11.38
2019-04-16T15:58:08.110Z,11.11
2019-04-16T16:00:47.333Z,11.11
2019-04-16T16:03:27.807Z,11.06
2019-04-16T16:06:02.232Z,11.18
2019-04-16T16:08:42.737Z,11.15
2019-04-16T16:11:19.842Z,11.15
2019-04-16T16:13:56.650Z,11.04
2019-04-16T16:16:41.082Z,11.03
2019-04-16T16:18:58.643Z,11.09
2019-04-16T16:21:28.448Z,11.07
2019-04-16T16:23:58.304Z,11.01
2019-04-16T16:26:28.208Z,10.95
2019-04-16T16:28:57.952Z,10.84
2019-04-16T16:31:32.085Z,10.74
2019-04-16T16:33:59.080Z,10.67
2019-04-16T16:36:28.776Z,10.70
2019-04-16T16:38:58.504Z,10.73
2019-04-16T16:41:28.158Z,10.67
2019-04-16T16:43:58.056Z,10.74
2019-04-16T16:46:55.703Z,10.65
2019-04-16T16:49:13.120Z,10.59
2019-04-16T16:51:44.520Z,10.49
2019-04-16T16:54:19.264Z,10.53
2019-04-16T16:56:50.600Z,10.30
2019-04-16T16:59:24.947Z,10.34
2019-04-16T17:01:56.242Z,10.28
2019-04-16T17:04:27.582Z,10.27
2019-04-16T17:06:57.253Z,10.28
2019-04-16T17:09:30.400Z,10.33
2019-04-16T17:12:00.013Z,10.22
2019-04-16T17:14:29.822Z,10.23
2019-04-16T17:17:11.798Z,10.21
2019-04-16T17:19:30.874Z,10.14
2019-04-16T17:22:00.643Z,10.15
2019-04-16T17:24:30.340Z,10.13
2019-04-16T17:27:00.063Z,10.01
2019-04-16T17:29:29.806Z,10.02
2019-04-16T17:31:59.505Z,9.89
2019-04-16T17:34:29.443Z,9.89
2019-04-16T17:37:00.677Z,9.90
2019-04-16T17:39:42.622Z,9.83
2019-04-16T17:42:16.948Z,9.72
2019-04-16T17:44:48.262Z,9.73
2019-04-16T17:47:35.654Z,9.61
2019-04-16T17:50:07.806Z,9.51
2019-04-16T17:52:47.928Z,9.52
2019-04-16T17:55:25.093Z,9.36
2019-04-16T17:58:08.614Z,9.45
2019-04-16T18:00:42.759Z,9.35
2019-04-16T18:03:25.915Z,9.25
2019-04-16T18:05:57.242Z,9.15
2019-04-16T18:08:43.513Z,9.07
2019-04-16T18:11:14.830Z,9.08
2019-04-16T18:13:49.288Z,9.00
2019-04-16T18:16:20.743Z,8.90
2019-04-16T18:19:03.949Z,8.85
2019-04-16T18:21:42.682Z,8.79
2019-04-16T18:24:20.237Z,8.69
2019-04-16T18:26:52.213Z,8.70
2019-04-16T18:29:23.560Z,8.72
2019-04-16T18:32:06.833Z,8.70
2019-04-16T18:34:44.393Z,8.63
2019-04-16T18:37:32.283Z,8.60
2019-04-16T18:40:21.553Z,8.49
2019-04-16T18:43:04.855Z,8.52
2019-04-16T18:45:55.622Z,8.43
2019-04-16T18:48:31.027Z,8.43
2019-04-16T18:51:01.959Z,8.48
2019-04-16T18:53:31.750Z,8.49
2019-04-16T18:56:01.433Z,8.44
2019-04-16T18:58:31.102Z,8.46
2019-04-16T19:01:04.866Z,8.45
2019-04-16T19:03:34.629Z,8.45
2019-04-16T19:06:05.423Z,8.43
2019-04-16T19:08:42.091Z,8.42
2019-04-16T19:11:06.558Z,8.36
2019-04-16T19:13:36.305Z,8.48
2019-04-16T19:16:06.094Z,8.38
2019-04-16T19:18:35.842Z,8.41
2019-04-16T19:21:05.854Z,8.47
2019-04-16T19:23:35.558Z,8.48
2019-04-16T19:26:06.086Z,8.42
2019-04-16T19:28:36.303Z,8.51
2019-04-16T19:31:07.354Z,8.47
2019-04-16T19:33:38.472Z,8.56
2019-04-16T19:36:08.469Z,8.53
2019-04-16T19:38:39.519Z,8.56
2019-04-16T19:41:09.532Z,8.61
2019-04-16T19:43:39.320Z,8.54
2019-04-16T19:46:09.068Z,8.59
2019-04-16T19:48:38.770Z,8.63
2019-04-16T19:51:09.120Z,8.68
2019-04-16T19:53:38.797Z,8.61
2019-04-16T19:56:08.463Z,8.58
2019-04-16T19:58:38.185Z,8.58
2019-04-16T20:01:12.000Z,8.67
2019-04-16T20:03:43.294Z,8.66
2019-04-16T20:06:11.767Z,8.64
2019-04-16T20:08:41.450Z,8.69
2019-04-16T20:11:11.594Z,8.73
2019-04-16T20:13:41.324Z,8.71
2019-04-16T20:16:11.074Z,8.62
2019-04-16T20:18:50.770Z,8.75
2019-04-16T20:21:12.144Z,8.77
2019-04-16T20:23:41.882Z,8.65
2019-04-16T20:26:11.643Z,8.58
2019-04-16T20:28:41.319Z,8.60
2019-04-16T20:31:11.009Z,8.54
2019-04-16T20:33:40.694Z,8.57
2019-04-16T20:36:10.408Z,8.60
2019-04-16T20:38:40.093Z,8.61
2019-04-16T20:41:09.794Z,8.58
2019-04-16T20:43:39.452Z,8.51
2019-04-16T20:46:09.147Z,8.49
2019-04-16T20:48:38.834Z,8.50
2019-04-16T20:51:08.535Z,8.53
2019-04-16T20:53:41.298Z,8.55
2019-04-16T20:56:10.769Z,8.49
2019-04-16T20:58:40.542Z,8.41
2019-04-16T21:01:10.284Z,8.38
2019-04-16T21:03:39.973Z,8.42
2019-04-16T21:06:09.778Z,8.34
2019-04-16T21:08:39.440Z,8.34
2019-04-16T21:11:09.715Z,8.41
2019-04-16T21:13:46.942Z,8.29
2019-04-16T21:16:17.013Z,8.34
2019-04-16T21:18:46.704Z,8.25
2019-04-16T21:21:16.385Z,8.28
2019-04-16T21:23:46.083Z,8.33
2019-04-16T21:26:16.542Z,8.24
2019-04-16T21:28:58.525Z,8.16
2019-04-16T21:31:30.613Z,8.23
2019-04-16T21:34:01.960Z,8.10
2019-04-16T21:36:33.802Z,8.12
2019-04-16T21:39:08.335Z,8.08
2019-04-16T21:41:39.539Z,8.07
2019-04-16T21:44:12.953Z,8.00
2019-04-16T21:46:40.741Z,8.01
2019-04-16T21:49:10.592Z,8.11
2019-04-16T21:51:41.904Z,7.93
2019-04-16T21:54:11.615Z,7.89
2019-04-16T21:56:41.290Z,7.85
2019-04-16T21:59:11.964Z,7.86
2019-04-16T22:01:43.352Z,7.88
2019-04-16T22:04:14.753Z,7.78
2019-04-16T22:06:44.519Z,7.80
2019-04-16T22:09:14.762Z,7.75
2019-04-16T22:11:44.523Z,7.76
2019-04-16T22:14:14.243Z,7.71
2019-04-16T22:16:43.907Z,7.63
2019-04-16T22:19:14.007Z,7.66
2019-04-16T22:21:44.650Z,7.52
2019-04-16T22:24:14.322Z,7.60
2019-04-16T22:26:44.081Z,7.63
2019-04-16T22:29:15.664Z,7.55
2019-04-16T22:31:45.157Z,7.54
2019-04-16T22:34:14.908Z,7.46
2019-04-16T22:36:44.657Z,7.40
2019-04-16T22:39:22.098Z,7.41
2019-04-16T22:41:59.319Z,7.45
2019-04-16T22:44:46.628Z,7.49
2019-04-16T22:47:27.065Z,7.32
2019-04-16T22:50:12.829Z,7.17
2019-04-16T22:52:28.132Z,7.28
2019-04-16T22:54:57.913Z,7.33
2019-04-16T22:57:30.914Z,7.33
2019-04-16T22:59:58.988Z,7.25
2019-04-16T23:02:30.509Z,7.30
2019-04-16T23:05:00.636Z,7.18
2019-04-16T23:07:30.457Z,7.05
2019-04-16T23:10:00.148Z,7.01
2019-04-16T23:12:29.874Z,7.08
2019-04-16T23:15:13.964Z,7.09
2019-04-16T23:17:46.024Z,6.99
2019-04-16T23:20:28.487Z,6.93
2019-04-16T23:22:47.679Z,6.89
2019-04-16T23:25:17.441Z,6.96
2019-04-16T23:27:47.126Z,6.93
2019-04-16T23:30:18.497Z,6.89
2019-04-16T23:32:48.282Z,6.78
2019-04-16T23:35:17.984Z,6.78
2019-04-16T23:37:47.657Z,6.74
2019-04-16T23:40:17.378Z,6.87
2019-04-16T23:42:50.404Z,6.80
2019-04-16T23:45:33.670Z,6.74
2019-04-16T23:51:07.307Z,6.65
2019-04-16T23:53:39.050Z,6.64
2019-04-16T23:56:20.629Z,6.62
2019-04-16T23:58:52.149Z,6.71
